Time;durP1;ratioP1;P1;durP2;ratioP2;P2;SDS_P1;SDS_P2;PMS_P1;PMS_P2;Temp;Humidity;BMP_temperature;BMP_pressure;BME280_temperature;BME280_humidity;BME280_pressure;Samples;Min_cycle;Max_cycle;Signal;HPM_P1;HPM_P2
2021/12/13 00:01:56;;;;;;;83.70;21.67;;;;;;;-4.71;100.00;100843.94;4861749;29;20053;-64
2021/12/13 00:04:29;;;;;;;82.22;21.10;;;;;;;-4.76;100.00;100834.34;4862015;29;20478;-63
2021/12/13 00:07:03;;;;;;;95.07;27.17;;;;;;;-4.77;100.00;100828.22;4878499;29;20057;-63
2021/12/13 00:09:33;;;;;;;109.53;29.13;;;;;;;-4.78;100.00;100847.56;4862121;29;20109;-63
2021/12/13 00:12:01;;;;;;;106.03;22.80;;;;;;;-4.80;100.00;100827.38;4861880;29;20065;-63
2021/12/13 00:14:34;;;;;;;101.47;30.02;;;;;;;-4.97;100.00;100810.09;4861882;29;20112;-63
2021/12/13 00:17:12;;;;;;;119.35;34.35;;;;;;;-4.81;100.00;100826.53;4878670;29;20061;-64
2021/12/13 00:19:43;;;;;;;109.18;29.50;;;;;;;-4.85;100.00;100823.06;4861879;29;20425;-62
2021/12/13 00:22:14;;;;;;;105.38;31.27;;;;;;;-4.83;100.00;100822.16;4861910;29;20061;-63
2021/12/13 00:24:42;;;;;;;103.50;26.98;;;;;;;-4.79;100.00;100824.75;4861727;29;20092;-63
2021/12/13 00:27:12;;;;;;;97.43;25.08;;;;;;;-4.77;100.00;100816.78;4846261;29;20057;-64
2021/12/13 00:30:18;;;;;;;103.15;28.88;;;;;;;-4.82;100.00;100819.53;4845975;29;20057;-63
2021/12/13 00:33:13;;;;;;;82.50;22.83;;;;;;;-4.88;100.00;100795.88;4847605;29;20196;-63
2021/12/13 00:35:50;;;;;;;118.03;33.45;;;;;;;-4.91;100.00;100809.09;4861394;29;20053;-62
2021/12/13 00:38:20;;;;;;;104.10;31.25;;;;;;;-4.95;100.00;100807.41;4861038;29;20492;-63
2021/12/13 00:40:49;;;;;;;101.95;26.73;;;;;;;-4.88;100.00;100814.34;4861082;29;20052;-63
2021/12/13 00:43:22;;;;;;;95.05;24.67;;;;;;;-4.80;100.00;100844.09;4861122;29;20133;-62
2021/12/13 00:45:56;;;;;;;108.60;27.77;;;;;;;-4.86;100.00;100823.97;4845928;29;20059;-64
2021/12/13 00:48:24;;;;;;;115.50;29.98;;;;;;;-5.15;100.00;100784.91;4846103;29;20510;-64
2021/12/13 00:50:59;;;;;;;130.80;43.38;;;;;;;-4.91;100.00;100824.94;4861049;29;20152;-64
2021/12/13 00:53:25;;;;;;;119.72;31.10;;;;;;;-4.88;100.00;100827.53;4878243;29;20109;-63
2021/12/13 00:55:52;;;;;;;98.47;23.85;;;;;;;-4.89;100.00;100824.03;4877809;29;20053;-62
2021/12/13 00:58:21;;;;;;;113.25;26.67;;;;;;;-4.89;100.00;100829.28;4845761;29;20061;-63
2021/12/13 01:01:02;;;;;;;99.10;23.75;;;;;;;-4.91;100.00;100830.19;4860867;29;20529;-62
2021/12/13 01:03:35;;;;;;;102.45;25.08;;;;;;;-4.91;100.00;100820.53;4878063;29;20113;-63
2021/12/13 01:06:38;;;;;;;124.30;32.55;;;;;;;-4.90;100.00;100824.03;4877493;29;20060;-64
2021/12/13 01:09:38;;;;;;;129.57;37.35;;;;;;;-4.92;100.00;100825.84;4861397;29;20053;-64
2021/12/13 01:12:08;;;;;;;134.63;33.30;;;;;;;-4.97;100.00;100820.66;4877894;29;20064;-62
2021/12/13 01:14:57;;;;;;;137.35;40.03;;;;;;;-4.93;100.00;100826.75;4877413;29;20061;-63
2021/12/13 01:17:59;;;;;;;68.25;18.33;;;;;;;-4.89;100.00;100833.69;4877667;29;20610;-64
2021/12/13 01:20:54;;;;;;;141.88;35.60;;;;;;;-4.93;100.00;100826.75;4870564;29;20599;-64
2021/12/13 01:23:38;;;;;;;140.93;36.55;;;;;;;-4.94;100.00;100814.44;4860421;29;20068;-63
2021/12/13 01:26:26;;;;;;;134.10;29.77;;;;;;;-4.92;100.00;100812.66;4847181;29;20072;-63
2021/12/13 01:28:57;;;;;;;121.05;29.20;;;;;;;-4.97;100.00;100806.56;4877085;29;20454;-64
2021/12/13 01:31:37;;;;;;;123.18;26.48;;;;;;;-5.07;100.00;100776.88;4877004;29;20071;-63
2021/12/13 01:34:04;;;;;;;137.25;31.77;;;;;;;-4.89;100.00;100809.97;4877239;29;20056;-63
2021/12/13 01:37:07;;;;;;;146.38;38.97;;;;;;;-4.88;100.00;100819.63;4860023;29;20076;-63
2021/12/13 01:39:35;;;;;;;111.18;26.58;;;;;;;-4.87;100.00;100816.94;4873602;29;20060;-62
2021/12/13 01:42:14;;;;;;;120.10;29.40;;;;;;;-4.86;100.00;100807.28;4860222;29;20117;-62
2021/12/13 01:44:44;;;;;;;111.25;23.83;;;;;;;-4.82;100.00;100813.38;4877140;29;20076;-63
2021/12/13 01:47:14;;;;;;;116.60;34.40;;;;;;;-4.89;100.00;100812.59;4876584;29;20068;-63
2021/12/13 01:49:44;;;;;;;108.47;28.35;;;;;;;-4.96;100.00;100795.16;4859992;29;20064;-63
2021/12/13 01:52:27;;;;;;;96.60;28.67;;;;;;;-4.86;100.00;100812.56;4876622;29;20065;-63
2021/12/13 01:54:55;;;;;;;80.88;25.05;;;;;;;-4.87;100.00;100810.78;4859623;29;20348;-64
2021/12/13 01:57:26;;;;;;;95.40;25.17;;;;;;;-4.95;100.00;100788.97;4860305;29;20068;-64
2021/12/13 02:00:17;;;;;;;85.07;27.98;;;;;;;-4.86;100.00;100812.56;4877000;29;20061;-63
2021/12/13 02:02:51;;;;;;;86.45;30.48;;;;;;;-4.90;100.00;100809.09;4876649;29;20061;-63
2021/12/13 02:05:20;;;;;;;82.55;29.15;;;;;;;-4.93;100.00;100795.09;4876859;29;20075;-63
2021/12/13 02:07:53;;;;;;;88.05;27.30;;;;;;;-4.87;100.00;100802.88;4876496;29;20423;-62
2021/12/13 02:10:23;;;;;;;76.25;25.10;;;;;;;-4.87;100.00;100806.38;4876627;29;20053;-62
2021/12/13 02:12:55;;;;;;;74.93;21.42;;;;;;;-4.85;100.00;100803.75;4876831;29;20061;-63
2021/12/13 02:18:11;;;;;;;82.30;24.05;;;;;;;-4.89;100.00;100796.78;4876558;29;20061;-63
2021/12/13 02:20:44;;;;;;;79.47;20.95;;;;;;;-4.97;100.00;100777.56;4859246;29;20517;-62
2021/12/13 02:23:10;;;;;;;77.50;23.77;;;;;;;-4.88;100.00;100803.78;4876258;29;20073;-63
2021/12/13 02:25:58;;;;;;;69.05;20.45;;;;;;;-4.83;100.00;100791.38;4844474;29;20049;-63
2021/12/13 02:28:28;;;;;;;68.10;22.60;;;;;;;-4.89;100.00;100787.09;4876915;29;20053;-64
2021/12/13 02:31:01;;;;;;;80.20;27.77;;;;;;;-4.86;100.00;100780.91;4860397;29;20103;-62
2021/12/13 02:33:28;;;;;;;72.30;22.42;;;;;;;-4.88;100.00;100772.16;4877893;29;20129;-63
2021/12/13 02:35:59;;;;;;;79.82;23.63;;;;;;;-4.87;100.00;100768.59;4876533;29;20528;-63
2021/12/13 02:38:26;;;;;;;63.83;19.35;;;;;;;-5.06;100.00;100746.09;4876423;29;20060;-63
2021/12/13 02:40:52;;;;;;;64.68;18.85;;;;;;;-4.86;100.00;100775.63;4870668;29;20067;-63
2021/12/13 02:43:33;;;;;;;73.53;19.92;;;;;;;-4.89;100.00;100775.69;4857663;29;20049;-63
2021/12/13 02:45:59;;;;;;;71.93;24.33;;;;;;;-4.87;100.00;100784.44;4841199;29;20053;-63
2021/12/13 02:48:39;;;;;;;71.20;24.02;;;;;;;-4.92;100.00;100765.19;4857634;29;20053;-64
2021/12/13 02:51:15;;;;;;;77.65;24.10;;;;;;;-4.92;100.00;100765.19;4840993;29;20057;-64
2021/12/13 02:54:03;;;;;;;67.82;18.10;;;;;;;-5.19;100.00;100714.69;4857731;29;20085;-64
2021/12/13 02:56:42;;;;;;;71.43;18.75;;;;;;;-4.89;100.00;100770.41;4857514;29;20054;-62
2021/12/13 02:59:09;;;;;;;67.88;23.42;;;;;;;-4.90;100.00;100773.91;4857436;29;20054;-64
2021/12/13 03:01:51;;;;;;;58.90;18.33;;;;;;;-4.88;100.00;100775.66;4840638;29;20117;-63
2021/12/13 03:04:20;;;;;;;67.13;20.45;;;;;;;-4.90;100.00;100773.91;4858668;29;20057;-64
2021/12/13 03:06:56;;;;;;;55.15;15.63;;;;;;;-4.91;100.00;100761.66;4844414;29;20057;-64
2021/12/13 03:09:25;;;;;;;72.10;22.35;;;;;;;-5.04;100.00;100734.63;4861201;29;20072;-64
2021/12/13 03:11:52;;;;;;;67.97;21.75;;;;;;;-4.89;100.00;100767.78;4859344;29;20087;-64
2021/12/13 03:14:25;;;;;;;67.28;21.02;;;;;;;-4.90;100.00;100773.91;4844317;29;20069;-64
2021/12/13 03:17:03;;;;;;;58.08;18.13;;;;;;;-4.88;100.00;100761.59;4829247;29;20061;-63
2021/12/13 03:19:29;;;;;;;69.47;22.55;;;;;;;-4.99;100.00;100737.19;4845126;29;20426;-64
2021/12/13 03:22:21;;;;;;;54.42;16.20;;;;;;;-4.90;100.00;100753.72;4862002;29;20069;-64
2021/12/13 03:25:08;;;;;;;77.53;24.10;;;;;;;-4.89;100.00;100755.47;4829545;29;20403;-63
2021/12/13 03:27:51;;;;;;;60.67;17.58;;;;;;;-5.04;100.00;100712.69;4829162;29;20061;-64
2021/12/13 03:30:34;;;;;;;59.50;18.45;;;;;;;-4.90;100.00;100737.00;4860982;29;20069;-64
2021/12/13 03:33:05;;;;;;;61.13;18.05;;;;;;;-4.91;100.00;100736.13;4844159;29;20488;-64
2021/12/13 03:35:52;;;;;;;60.25;16.40;;;;;;;-4.89;100.00;100741.41;4861064;29;20475;-66
2021/12/13 03:38:21;;;;;;;72.85;25.05;;;;;;;-4.96;100.00;100737.13;4860714;29;20053;-64
2021/12/13 03:40:48;;;;;;;62.10;16.55;;;;;;;-4.89;100.00;100749.31;4860177;29;20053;-63
2021/12/13 03:43:18;;;;;;;61.30;19.45;;;;;;;-4.87;100.00;100752.78;4860592;29;20515;-64
2021/12/13 03:45:50;;;;;;;65.47;18.75;;;;;;;-4.89;100.00;100744.03;4860584;29;20061;-64
2021/12/13 03:48:20;;;;;;;57.08;16.48;;;;;;;-4.87;100.00;100758.06;4845959;29;20517;-64
2021/12/13 03:50:49;;;;;;;63.28;17.30;;;;;;;-4.87;100.00;100744.88;4879334;29;20044;-63
2021/12/13 03:53:19;;;;;;;65.70;23.35;;;;;;;-4.88;100.00;100743.13;4879728;29;20176;-65
2021/12/13 03:55:48;;;;;;;67.93;18.60;;;;;;;-4.91;100.00;100738.78;4862310;29;20390;-63
2021/12/13 03:58:17;;;;;;;72.20;20.58;;;;;;;-4.92;100.00;100730.91;4869219;29;20135;-68
2021/12/13 04:00:49;;;;;;;59.35;15.15;;;;;;;-4.83;100.00;100749.19;4854421;29;20113;-64
2021/12/13 04:03:16;;;;;;;73.20;20.20;;;;;;;-4.85;100.00;100735.19;4862826;29;20097;-64
2021/12/13 04:05:42;;;;;;;69.65;20.55;;;;;;;-4.88;100.00;100736.09;4861864;29;20303;-64
2021/12/13 04:08:11;;;;;;;85.60;24.73;;;;;;;-4.92;100.00;100725.63;4869476;29;20053;-64
2021/12/13 04:10:40;;;;;;;80.18;21.83;;;;;;;-4.94;100.00;100719.50;4858533;29;20049;-66
2021/12/13 04:13:13;;;;;;;97.70;29.55;;;;;;;-4.94;100.00;100724.78;4841727;29;20061;-69
2021/12/13 04:16:01;;;;;;;74.10;18.45;;;;;;;-4.89;100.00;100729.09;4857471;29;20049;-65
2021/12/13 04:21:24;;;;;;;72.25;17.08;;;;;;;-5.01;100.00;100697.69;4862901;29;20065;-66
2021/12/13 04:23:57;;;;;;;75.00;20.75;;;;;;;-4.90;100.00;100715.91;4858811;29;20049;-65
2021/12/13 04:26:25;;;;;;;88.25;19.02;;;;;;;-4.88;100.00;100716.75;4878186;29;20069;-65
2021/12/13 04:28:55;;;;;;;94.63;21.60;;;;;;;-4.89;100.00;100715.91;4861642;29;20053;-64
2021/12/13 04:31:25;;;;;;;77.70;18.45;;;;;;;-4.86;100.00;100720.25;4878769;29;20068;-65
2021/12/13 04:33:58;;;;;;;84.63;20.38;;;;;;;-5.07;100.00;100675.81;4878114;29;20437;-65
2021/12/13 04:36:30;;;;;;;87.10;23.52;;;;;;;-4.97;100.00;100699.34;4876488;29;20516;-64
2021/12/13 04:39:11;;;;;;;89.43;21.77;;;;;;;-5.00;100.00;100693.28;4861277;29;20148;-64
2021/12/13 04:41:36;;;;;;;97.28;21.73;;;;;;;-4.88;100.00;100714.13;4861041;29;20056;-65
2021/12/13 04:44:37;;;;;;;108.10;28.08;;;;;;;-4.92;100.00;100712.44;4878795;29;20057;-65
2021/12/13 04:47:09;;;;;;;107.35;27.77;;;;;;;-4.98;100.00;100697.59;4855032;29;20097;-65
2021/12/13 04:49:41;;;;;;;92.57;19.17;;;;;;;-4.93;100.00;100705.44;4878029;29;20132;-64
2021/12/13 04:52:19;;;;;;;112.07;22.13;;;;;;;-4.99;100.00;100692.38;4830782;29;20073;-64
2021/12/13 04:54:53;;;;;;;95.88;20.38;;;;;;;-4.93;100.00;100700.16;4877917;29;20060;-65
2021/12/13 04:57:19;;;;;;;94.25;20.75;;;;;;;-4.88;100.00;100706.22;4878148;29;20064;-64
2021/12/13 04:59:54;;;;;;;102.72;25.20;;;;;;;-4.88;100.00;100714.13;4878171;29;20131;-65
2021/12/13 05:02:21;;;;;;;106.57;27.13;;;;;;;-4.93;100.00;100698.41;4878116;29;20061;-64
2021/12/13 05:04:50;;;;;;;102.60;25.45;;;;;;;-4.98;100.00;100696.72;4861348;29;20061;-65
2021/12/13 05:07:17;;;;;;;122.47;30.42;;;;;;;-4.94;100.00;100704.53;4861449;29;20057;-65
2021/12/13 05:09:47;;;;;;;118.45;25.40;;;;;;;-4.89;100.00;100712.41;4878046;29;20200;-65
2021/12/13 05:12:16;;;;;;;101.80;23.80;;;;;;;-4.88;100.00;100708.84;4877886;29;20061;-65
2021/12/13 05:14:48;;;;;;;133.00;32.65;;;;;;;-4.92;100.00;100712.44;4877429;29;20087;-65
2021/12/13 05:17:19;;;;;;;102.47;23.98;;;;;;;-4.97;100.00;100693.19;4845493;29;20057;-65
2021/12/13 05:19:49;;;;;;;106.55;21.48;;;;;;;-4.91;100.00;100706.28;4845560;29;20105;-64
2021/12/13 05:22:17;;;;;;;100.47;25.40;;;;;;;-4.87;100.00;100710.59;4877444;29;20067;-64
2021/12/13 05:24:53;;;;;;;99.75;22.42;;;;;;;-4.87;100.00;100700.03;4860698;29;20263;-64
2021/12/13 05:27:39;;;;;;;92.50;20.10;;;;;;;-4.87;100.00;100697.41;4860315;29;20468;-65
2021/12/13 05:30:20;;;;;;;117.85;22.75;;;;;;;-4.85;100.00;100704.41;4877204;29;20462;-64
2021/12/13 05:32:57;;;;;;;115.38;24.83;;;;;;;-4.84;100.00;100710.53;4877403;29;20139;-65
2021/12/13 05:35:27;;;;;;;125.50;28.65;;;;;;;-4.95;100.00;100691.41;4860414;29;20536;-63
2021/12/13 05:37:56;;;;;;;101.20;24.92;;;;;;;-4.86;100.00;100707.06;4860265;29;20147;-66
2021/12/13 05:40:41;;;;;;;100.07;20.88;;;;;;;-4.86;100.00;100693.88;4860704;29;20061;-65
2021/12/13 05:43:18;;;;;;;102.28;21.77;;;;;;;-4.85;100.00;100714.94;4860363;29;20092;-65
2021/12/13 05:45:50;;;;;;;145.70;31.55;;;;;;;-4.90;100.00;100716.81;4876748;29;20045;-65
2021/12/13 05:48:23;;;;;;;113.45;22.52;;;;;;;-4.85;100.00;100719.34;4876935;29;20064;-64
2021/12/13 05:50:56;;;;;;;117.43;29.25;;;;;;;-4.84;100.00;100718.44;4876596;29;20178;-65
2021/12/13 05:53:29;;;;;;;102.35;23.65;;;;;;;-4.87;100.00;100713.22;4877049;29;20060;-67
2021/12/13 05:56:16;;;;;;;119.45;26.27;;;;;;;-4.97;100.00;100709.00;4876973;29;20074;-64
2021/12/13 05:58:55;;;;;;;126.05;24.05;;;;;;;-4.91;100.00;100703.63;4876821;29;20190;-65
2021/12/13 06:01:31;;;;;;;128.90;30.63;;;;;;;-4.87;100.00;100713.22;4859864;29;20437;-64
2021/12/13 06:04:06;;;;;;;117.45;27.08;;;;;;;-4.85;100.00;100709.66;4877013;29;20539;-65
2021/12/13 06:06:32;;;;;;;133.75;32.10;;;;;;;-4.87;100.00;100705.31;4876600;29;20059;-65
2021/12/13 06:08:58;;;;;;;137.30;33.67;;;;;;;-4.85;100.00;100709.66;4859911;29;20056;-65
2021/12/13 06:11:34;;;;;;;115.47;28.02;;;;;;;-4.79;100.00;100719.25;4876573;29;20086;-65
2021/12/13 06:14:05;;;;;;;117.40;25.92;;;;;;;-4.82;100.00;100714.03;4860252;29;20059;-65
2021/12/13 06:16:41;;;;;;;118.50;28.42;;;;;;;-4.80;100.00;100716.63;4844391;29;20069;-65
2021/12/13 06:19:20;;;;;;;121.53;27.77;;;;;;;-4.83;100.00;100717.53;4876500;29;20064;-65
2021/12/13 06:21:55;;;;;;;109.28;19.70;;;;;;;-4.76;100.00;100719.16;4877098;29;20141;-65
2021/12/13 06:24:33;;;;;;;117.43;27.15;;;;;;;-4.91;100.00;100701.88;4859876;29;20080;-65
2021/12/13 06:27:11;;;;;;;132.38;31.60;;;;;;;-4.92;100.00;100699.25;4859754;29;20108;-65
2021/12/13 06:30:05;;;;;;;122.90;24.48;;;;;;;-5.09;100.00;100663.50;4860051;29;20239;-65
2021/12/13 06:32:49;;;;;;;123.72;30.35;;;;;;;-4.80;100.00;100712.22;4860157;29;20080;-66
2021/12/13 06:35:50;;;;;;;124.35;29.30;;;;;;;-4.82;100.00;100711.38;4876586;29;20518;-65
2021/12/13 06:38:19;;;;;;;140.35;33.60;;;;;;;-4.79;100.00;100703.44;4844372;29;20375;-66
2021/12/13 06:41:12;;;;;;;121.72;27.75;;;;;;;-4.79;100.00;100708.69;4875681;29;20065;-65
2021/12/13 06:43:48;;;;;;;129.40;25.27;;;;;;;-4.87;100.00;100697.41;4876198;29;20057;-64
2021/12/13 06:46:23;;;;;;;138.13;31.88;;;;;;;-4.82;100.00;100692.94;4876457;29;20064;-65
2021/12/13 06:48:58;;;;;;;113.75;25.13;;;;;;;-4.75;100.00;100709.47;4876189;29;20053;-65
2021/12/13 06:51:50;;;;;;;101.97;23.02;;;;;;;-4.76;100.00;100713.91;4860789;29;20068;-64
2021/12/13 06:54:22;;;;;;;153.20;42.08;;;;;;;-4.79;100.00;100713.97;4859492;29;20535;-64
2021/12/13 06:57:11;;;;;;;94.05;22.15;;;;;;;-4.84;100.00;100700.00;4861083;29;20516;-66
2021/12/13 06:59:57;;;;;;;111.68;30.58;;;;;;;-4.78;100.00;100710.44;4876386;29;20053;-65
2021/12/13 07:02:28;;;;;;;128.70;32.53;;;;;;;-4.78;100.00;100705.16;4877004;29;20159;-65
2021/12/13 07:04:56;;;;;;;110.45;29.48;;;;;;;-4.90;100.00;100692.19;4876903;29;20079;-65
2021/12/13 07:07:30;;;;;;;120.63;30.83;;;;;;;-4.79;100.00;100699.88;4876660;29;20146;-65
2021/12/13 07:09:59;;;;;;;101.15;26.08;;;;;;;-4.92;100.00;100675.53;4859550;29;20532;-65
2021/12/13 07:12:27;;;;;;;122.72;33.67;;;;;;;-4.73;100.00;100702.41;4843796;29;20061;-66
2021/12/13 07:14:54;;;;;;;108.65;32.55;;;;;;;-4.74;100.00;100700.69;4859001;29;20060;-65
2021/12/13 07:17:27;;;;;;;97.07;25.63;;;;;;;-4.71;100.00;100695.38;4858924;29;20518;-65
2021/12/13 07:19:56;;;;;;;102.05;34.35;;;;;;;-4.70;100.00;100705.00;4876456;29;20049;-65
2021/12/13 07:22:25;;;;;;;86.65;27.92;;;;;;;-4.69;100.00;100704.97;4875860;29;20056;-66
2021/12/13 07:25:04;;;;;;;89.30;25.80;;;;;;;-4.65;100.00;100708.41;4843941;29;20068;-65
2021/12/13 07:27:34;;;;;;;95.57;29.65;;;;;;;-4.95;100.00;100651.84;4876200;29;20096;-66
2021/12/13 07:30:29;;;;;;;95.80;31.75;;;;;;;-4.74;100.00;100696.28;4843845;29;20136;-65
2021/12/13 07:32:59;;;;;;;78.00;26.83;;;;;;;-4.56;100.00;100721.44;4858847;29;20498;-65
2021/12/13 07:35:40;;;;;;;84.05;26.17;;;;;;;-4.78;100.00;100684.06;4843789;29;20253;-65
2021/12/13 07:38:14;;;;;;;88.25;32.55;;;;;;;-4.71;100.00;100711.19;4843612;29;20061;-66
2021/12/13 07:40:41;;;;;;;87.00;28.00;;;;;;;-4.50;100.00;100731.00;4875423;29;20049;-65
2021/12/13 07:43:29;;;;;;;82.90;25.05;;;;;;;-4.59;100.00;100704.81;4859212;29;20209;-65
2021/12/13 07:46:03;;;;;;;74.57;20.98;;;;;;;-4.45;100.00;100723.88;4859126;29;20119;-65
2021/12/13 07:48:35;;;;;;;82.43;25.27;;;;;;;-4.58;100.00;100698.63;4859013;29;20061;-65
2021/12/13 07:51:20;;;;;;;78.93;24.20;;;;;;;-4.57;100.00;100709.16;4876208;29;20418;-65
2021/12/13 07:53:58;;;;;;;70.13;22.75;;;;;;;-4.47;100.00;100720.38;4879186;29;20093;-65
2021/12/13 07:56:39;;;;;;;80.35;27.23;;;;;;;-4.43;100.00;100727.34;4862091;29;20097;-66
2021/12/13 07:59:17;;;;;;;72.15;22.13;;;;;;;-4.41;100.00;100730.81;4880503;29;20075;-65
2021/12/13 08:01:57;;;;;;;76.30;24.17;;;;;;;-4.37;100.00;100719.31;4879276;29;20061;-65
2021/12/13 08:04:43;;;;;;;79.32;25.50;;;;;;;-4.38;100.00;100712.28;4862808;29;20076;-65
2021/12/13 08:07:46;;;;;;;73.65;25.05;;;;;;;-4.38;100.00;100707.03;4879913;29;20056;-65
2021/12/13 08:10:25;;;;;;;80.43;26.75;;;;;;;-4.32;100.00;100720.06;4862094;29;20156;-65
2021/12/13 08:13:00;;;;;;;77.03;26.02;;;;;;;-4.33;100.00;100728.91;4863025;29;20080;-66
2021/12/13 08:15:42;;;;;;;74.30;27.23;;;;;;;-4.50;100.00;100699.31;4879841;29;20144;-66
2021/12/13 08:18:11;;;;;;;76.75;29.52;;;;;;;-4.36;100.00;100723.66;4879743;29;20053;-66
2021/12/13 08:20:46;;;;;;;74.03;27.77;;;;;;;-4.40;100.00;100716.72;4847683;29;20053;-65
2021/12/13 08:23:16;;;;;;;69.55;22.98;;;;;;;-4.34;100.00;100721.03;4862717;29;20511;-65
2021/12/13 08:25:42;;;;;;;65.80;23.50;;;;;;;-4.32;100.00;100727.97;4862624;29;20131;-65
2021/12/13 08:28:12;;;;;;;66.47;22.42;;;;;;;-4.29;100.00;100727.94;4847536;29;20148;-66
2021/12/13 08:30:43;;;;;;;76.53;26.83;;;;;;;-4.26;100.00;100729.66;4880321;29;20057;-66
2021/12/13 08:33:14;;;;;;;63.22;20.08;;;;;;;-4.25;100.00;100723.47;4862833;29;20573;-66
2021/12/13 08:35:52;;;;;;;69.72;24.65;;;;;;;-4.28;100.00;100719.09;4862394;29;20430;-66
2021/12/13 08:38:27;;;;;;;65.55;20.80;;;;;;;-4.23;100.00;100711.97;4862633;29;20061;-67
2021/12/13 08:40:53;;;;;;;69.90;24.98;;;;;;;-4.24;100.00;100704.97;4862702;29;20399;-66
2021/12/13 08:43:43;;;;;;;74.05;27.10;;;;;;;-4.19;100.00;100710.13;4879069;29;20087;-66
2021/12/13 08:46:10;;;;;;;70.72;26.17;;;;;;;-4.35;100.00;100683.22;4862646;29;20052;-66
2021/12/13 08:48:49;;;;;;;67.65;23.45;;;;;;;-4.17;100.00;100714.50;4846503;29;20098;-66
2021/12/13 08:51:23;;;;;;;64.30;23.67;;;;;;;-4.37;100.00;100674.44;4878550;29;20056;-66
2021/12/13 08:54:07;;;;;;;71.40;26.48;;;;;;;-4.19;100.00;100712.78;4875977;29;20550;-66
2021/12/13 08:56:38;;;;;;;69.78;23.25;;;;;;;-4.09;100.00;100721.38;4878359;29;20061;-67
2021/12/13 08:59:23;;;;;;;66.50;21.13;;;;;;;-4.08;100.00;100715.19;4846724;29;20469;-66
2021/12/13 09:02:01;;;;;;;70.25;22.70;;;;;;;-4.05;100.00;100713.34;4862361;29;20458;-66
2021/12/13 09:04:43;;;;;;;63.80;19.85;;;;;;;-4.04;100.00;100719.50;4878723;29;20060;-66
2021/12/13 09:07:13;;;;;;;52.42;18.15;;;;;;;-4.15;100.00;100686.28;4878619;29;20064;-65
2021/12/13 09:09:44;;;;;;;67.90;25.52;;;;;;;-4.07;100.00;100703.72;4861406;29;20052;-66
2021/12/13 09:12:11;;;;;;;63.05;22.20;;;;;;;-3.99;100.00;100696.50;4861797;29;20092;-66
2021/12/13 09:14:44;;;;;;;69.25;22.58;;;;;;;-4.00;100.00;100690.34;4861890;29;20401;-66
2021/12/13 09:17:21;;;;;;;64.65;21.58;;;;;;;-4.02;100.00;100664.88;4846289;29;20541;-65
2021/12/13 09:19:50;;;;;;;64.07;21.05;;;;;;;-4.28;100.00;100626.72;4879659;29;20579;-65
2021/12/13 09:22:30;;;;;;;58.85;21.98;;;;;;;-3.87;100.00;100675.09;4863805;29;20048;-66
2021/12/13 09:25:00;;;;;;;58.47;20.20;;;;;;;-3.86;100.00;100662.75;4861275;29;20060;-66
2021/12/13 09:27:37;;;;;;;59.42;20.85;;;;;;;-3.79;100.00;100670.50;4861133;29;20504;-66
2021/12/13 09:30:11;;;;;;;58.47;22.08;;;;;;;-3.78;100.00;100664.31;4845805;29;20057;-66
2021/12/13 09:33:09;;;;;;;54.75;19.52;;;;;;;-3.88;100.00;100631.09;4845413;29;20049;-66
2021/12/13 09:35:35;;;;;;;48.60;17.23;;;;;;;-3.72;100.00;100647.47;4847217;29;20498;-66
2021/12/13 09:38:23;;;;;;;53.58;19.10;;;;;;;-3.72;100.00;100648.31;4861168;29;20133;-67
2021/12/13 09:41:05;;;;;;;56.92;20.98;;;;;;;-3.75;100.00;100648.41;4861264;29;20144;-65
2021/12/13 09:43:47;;;;;;;47.15;16.75;;;;;;;-3.75;100.00;100651.03;4877182;29;20378;-66
2021/12/13 09:46:19;;;;;;;54.50;20.60;;;;;;;-3.82;100.00;100645.94;4877688;29;20076;-66
2021/12/13 09:48:50;;;;;;;56.65;17.63;;;;;;;-3.88;100.00;100623.16;4860119;29;20084;-66
2021/12/13 09:51:25;;;;;;;57.95;21.65;;;;;;;-3.82;100.00;100645.94;4845087;29;20056;-65
2021/12/13 09:53:55;;;;;;;56.70;22.05;;;;;;;-3.83;100.00;100645.06;4876942;29;20076;-66
2021/12/13 09:56:22;;;;;;;56.55;22.00;;;;;;;-3.85;100.00;100636.31;4845167;29;20088;-66
2021/12/13 09:58:53;;;;;;;57.63;23.85;;;;;;;-4.01;100.00;100614.69;4877370;29;20117;-66
2021/12/13 10:01:27;;;;;;;58.72;20.27;;;;;;;-3.81;100.00;100637.97;4844902;29;20067;-66
2021/12/13 10:04:00;;;;;;;48.88;16.27;;;;;;;-3.81;100.00;100619.47;4877130;29;20048;-66
2021/12/13 10:06:36;;;;;;;49.97;17.40;;;;;;;-3.61;100.00;100641.91;4876568;29;20406;-66
2021/12/13 10:09:21;;;;;;;58.60;18.55;;;;;;;-3.52;100.00;100641.69;4877510;29;20151;-66
2021/12/13 10:11:58;;;;;;;59.70;20.35;;;;;;;-3.57;100.00;100636.50;4845327;29;20079;-66
2021/12/13 10:14:28;;;;;;;55.53;17.90;;;;;;;-3.48;100.00;100640.69;4876834;29;20061;-66
2021/12/13 10:16:55;;;;;;;52.10;18.73;;;;;;;-3.49;100.00;100639.81;4845241;29;20061;-66
2021/12/13 10:19:41;;;;;;;55.55;20.23;;;;;;;-3.55;100.00;100639.09;4860318;29;20064;-66
2021/12/13 10:22:08;;;;;;;53.05;19.52;;;;;;;-3.73;100.00;100614.00;4860077;29;20075;-66
2021/12/13 10:24:50;;;;;;;57.13;18.80;;;;;;;-3.53;100.00;100647.88;4845450;29;20065;-65
2021/12/13 10:27:18;;;;;;;54.55;18.08;;;;;;;-3.54;100.00;100641.72;4877913;29;20065;-66
2021/12/13 10:29:48;;;;;;;53.50;21.27;;;;;;;-3.54;100.00;100635.59;4844684;29;20061;-65
2021/12/13 10:32:24;;;;;;;51.63;19.70;;;;;;;-3.57;100.00;100619.78;4845172;29;20167;-66
2021/12/13 10:34:58;;;;;;;48.88;18.05;;;;;;;-3.64;100.00;100621.72;4844901;29;20068;-66
2021/12/13 10:37:29;;;;;;;52.20;19.02;;;;;;;-3.72;100.00;100606.06;4876814;29;20072;-65
2021/12/13 10:39:58;;;;;;;52.70;19.17;;;;;;;-3.71;100.00;100599.84;4845076;29;20096;-66
2021/12/13 10:42:30;;;;;;;48.60;15.82;;;;;;;-3.52;100.00;100620.53;4859879;29;20117;-66
2021/12/13 10:44:57;;;;;;;51.28;17.08;;;;;;;-3.39;100.00;100627.25;4860758;29;20084;-65
2021/12/13 10:47:32;;;;;;;55.05;18.92;;;;;;;-3.33;100.00;100632.38;4876905;29;20148;-65
2021/12/13 10:49:59;;;;;;;50.60;17.65;;;;;;;-3.29;100.00;100631.41;4860133;29;20088;-66
2021/12/13 10:52:32;;;;;;;57.15;19.55;;;;;;;-3.21;100.00;100631.19;4876897;29;20063;-66
2021/12/13 10:55:08;;;;;;;44.95;16.48;;;;;;;-3.24;100.00;100629.50;4860603;29;20080;-66
2021/12/13 10:57:39;;;;;;;53.45;17.65;;;;;;;-3.20;100.00;100633.78;4877400;29;20144;-66
2021/12/13 11:00:11;;;;;;;51.08;17.88;;;;;;;-3.11;100.00;100629.16;4876456;29;20071;-65
2021/12/13 11:02:37;;;;;;;48.30;17.75;;;;;;;-3.09;100.00;100628.22;4877259;29;20208;-66
2021/12/13 11:05:10;;;;;;;53.30;19.90;;;;;;;-3.04;100.00;100636.03;4844328;29;20144;-66
2021/12/13 11:07:38;;;;;;;45.70;17.88;;;;;;;-2.97;100.00;100638.44;4859584;29;20049;-66
2021/12/13 11:10:07;;;;;;;50.15;17.42;;;;;;;-2.99;100.00;100650.88;4829461;29;20056;-66
2021/12/13 11:12:37;;;;;;;48.47;18.98;;;;;;;-3.10;100.00;100641.50;4844180;29;20390;-66
2021/12/13 11:15:18;;;;;;;51.65;18.05;;;;;;;-3.03;100.00;100635.13;4844731;29;20065;-66
2021/12/13 11:17:45;;;;;;;46.03;18.08;;;;;;;-3.05;100.00;100639.59;4860269;29;20144;-66
2021/12/13 11:20:18;;;;;;;60.03;19.70;;;;;;;-3.08;100.00;100642.31;4877206;29;20148;-66
2021/12/13 11:22:45;;;;;;;47.80;17.25;;;;;;;-3.02;100.00;100629.78;4876761;29;20053;-66
2021/12/13 11:25:16;;;;;;;54.25;20.65;;;;;;;-3.06;100.00;100635.22;4859797;29;20109;-66
2021/12/13 11:27:42;;;;;;;54.08;18.30;;;;;;;-3.01;100.00;100633.28;4862891;29;20057;-66
2021/12/13 11:30:13;;;;;;;43.33;14.68;;;;;;;-2.92;100.00;100630.41;4862905;29;20470;-66
2021/12/13 11:32:57;;;;;;;44.53;16.23;;;;;;;-2.92;100.00;100635.72;4863981;29;20151;-66
2021/12/13 11:36:00;;;;;;;42.83;17.52;;;;;;;-2.96;100.00;100639.34;4863142;29;20160;-66
2021/12/13 11:38:29;;;;;;;;;;;;;;;-3.01;100.00;100635.94;4880064;29;20417;-66
2021/12/13 11:41:26;;;;;;;46.22;15.95;;;;;;;-3.03;100.00;100627.19;4879494;29;19950;-66